createdAt,value
2024-03-20T00:00:00.539Z,874.8
2024-03-20T00:01:00.488Z,874.8
2024-03-20T00:02:00.511Z,874.8
2024-03-20T00:03:00.571Z,874.9
2024-03-20T00:04:00.489Z,874.9
2024-03-20T00:05:00.510Z,874.9
2024-03-20T00:06:00.502Z,874.9
2024-03-20T00:07:00.576Z,874.9
2024-03-20T00:08:00.464Z,874.9
2024-03-20T00:09:00.535Z,874.9
2024-03-20T00:10:00.491Z,874.9
2024-03-20T00:11:00.466Z,875.0
2024-03-20T00:12:00.469Z,875.0
2024-03-20T00:13:00.542Z,875.0
2024-03-20T00:14:00.495Z,875.0
2024-03-20T00:15:00.517Z,875.0
2024-03-20T00:16:00.499Z,875.1
2024-03-20T00:17:00.492Z,875.0
2024-03-20T00:18:00.490Z,875.1
2024-03-20T00:19:00.611Z,875.1
2024-03-20T00:20:00.487Z,875.1
2024-03-20T00:21:00.470Z,875.1
2024-03-20T00:22:00.541Z,875.1
2024-03-20T00:23:00.477Z,875.2
2024-03-20T00:24:00.490Z,875.2
2024-03-20T00:25:00.592Z,875.2
2024-03-20T00:26:00.507Z,875.2
2024-03-20T00:27:00.548Z,875.3
2024-03-20T00:28:00.500Z,875.3
2024-03-20T00:29:00.474Z,875.3
2024-03-20T00:30:00.534Z,875.3
2024-03-20T00:31:00.539Z,875.3
2024-03-20T00:32:00.482Z,875.3
2024-03-20T00:33:00.544Z,875.3
2024-03-20T00:34:00.522Z,875.4
2024-03-20T00:35:00.681Z,875.4
2024-03-20T00:36:00.492Z,875.4
2024-03-20T00:37:00.533Z,875.4
2024-03-20T00:38:00.475Z,875.4
2024-03-20T00:39:00.491Z,875.5
2024-03-20T00:40:00.475Z,875.5
2024-03-20T00:41:00.568Z,875.5
2024-03-20T00:42:00.495Z,875.5
2024-03-20T00:43:00.475Z,875.5
2024-03-20T00:44:00.476Z,875.5
2024-03-20T00:45:00.527Z,875.5
2024-03-20T00:46:00.466Z,875.5
2024-03-20T00:47:00.564Z,875.6
2024-03-20T00:48:00.473Z,875.6
2024-03-20T00:49:00.489Z,875.6
2024-03-20T00:50:00.482Z,875.7
2024-03-20T00:51:00.495Z,875.6
2024-03-20T00:52:00.567Z,875.7
2024-03-20T00:53:00.556Z,875.7
2024-03-20T00:54:00.490Z,875.7
2024-03-20T00:55:00.523Z,875.7
2024-03-20T00:56:00.480Z,875.7
2024-03-20T00:57:00.565Z,875.7
2024-03-20T00:58:00.468Z,875.7
2024-03-20T00:59:00.507Z,875.7
2024-03-20T01:00:00.497Z,875.7
2024-03-20T01:01:00.463Z,875.7
2024-03-20T01:02:00.477Z,875.8
2024-03-20T01:03:00.531Z,875.8
2024-03-20T01:04:00.482Z,875.8
2024-03-20T01:05:00.497Z,875.8
2024-03-20T01:06:01.026Z,875.8
2024-03-20T01:07:00.528Z,875.9
2024-03-20T01:08:00.534Z,875.8
2024-03-20T01:09:00.505Z,875.8
2024-03-20T01:10:00.506Z,875.8
2024-03-20T01:11:00.608Z,875.9
2024-03-20T01:12:00.623Z,875.9
2024-03-20T01:13:00.498Z,875.9
2024-03-20T01:14:00.466Z,875.9
2024-03-20T01:15:00.509Z,875.9
2024-03-20T01:16:00.538Z,875.9
2024-03-20T01:17:00.519Z,876.0
2024-03-20T01:18:00.481Z,876.0
2024-03-20T01:19:00.609Z,876.0
2024-03-20T01:20:00.506Z,876.0
2024-03-20T01:21:00.481Z,876.0
2024-03-20T01:22:00.483Z,876.0
2024-03-20T01:23:00.697Z,876.1
2024-03-20T01:24:00.486Z,876.1
2024-03-20T01:25:00.558Z,876.1
2024-03-20T01:26:00.485Z,876.1
2024-03-20T01:27:00.492Z,876.1
2024-03-20T01:28:00.492Z,876.1
2024-03-20T01:29:00.467Z,876.1
2024-03-20T01:30:00.509Z,876.1
2024-03-20T01:31:00.536Z,876.2
2024-03-20T01:32:00.472Z,876.2
2024-03-20T01:33:00.522Z,876.2
2024-03-20T01:34:00.556Z,876.2
2024-03-20T01:35:00.504Z,876.2
2024-03-20T01:36:00.498Z,876.2
2024-03-20T01:37:00.475Z,876.2
2024-03-20T01:38:00.645Z,876.2
2024-03-20T01:39:00.476Z,876.3
2024-03-20T01:40:00.523Z,876.3
2024-03-20T01:41:00.487Z,876.3
2024-03-20T01:42:00.489Z,876.3
2024-03-20T01:43:00.483Z,876.3
2024-03-20T01:44:00.548Z,876.3
2024-03-20T01:45:00.525Z,876.3
2024-03-20T01:46:00.489Z,876.3
2024-03-20T01:47:00.496Z,876.3
2024-03-20T01:48:00.484Z,876.4
2024-03-20T01:49:00.517Z,876.4
2024-03-20T01:50:00.529Z,876.4
2024-03-20T01:51:00.469Z,876.4
2024-03-20T01:52:00.538Z,876.4
2024-03-20T01:53:00.552Z,876.4
2024-03-20T01:54:00.488Z,876.4
2024-03-20T01:55:00.619Z,876.5
2024-03-20T01:56:00.560Z,876.5
2024-03-20T01:57:00.490Z,876.5
2024-03-20T01:58:00.517Z,876.5
2024-03-20T01:59:00.577Z,876.5
2024-03-20T02:00:00.578Z,876.5
2024-03-20T02:01:00.594Z,876.5
2024-03-20T02:02:00.469Z,876.5
2024-03-20T02:03:00.508Z,876.6
2024-03-20T02:04:00.554Z,876.6
2024-03-20T02:05:00.473Z,876.6
2024-03-20T02:06:00.496Z,876.7
2024-03-20T02:07:00.577Z,876.7
2024-03-20T02:08:00.544Z,876.7
2024-03-20T02:09:00.492Z,876.7
2024-03-20T02:10:00.472Z,876.7
2024-03-20T02:11:00.464Z,876.7
2024-03-20T02:12:00.500Z,876.7
2024-03-20T02:13:00.473Z,876.7
2024-03-20T02:14:00.518Z,876.8
2024-03-20T02:15:00.465Z,876.8
2024-03-20T02:16:00.481Z,876.8
2024-03-20T02:17:00.487Z,876.8
2024-03-20T02:18:00.491Z,876.8
2024-03-20T02:19:00.528Z,876.8
2024-03-20T02:20:00.562Z,876.9
2024-03-20T02:21:00.481Z,876.8
2024-03-20T02:22:00.483Z,876.9
2024-03-20T02:23:00.473Z,876.9
2024-03-20T02:24:00.492Z,876.9
2024-03-20T02:25:00.500Z,876.9
2024-03-20T02:26:00.633Z,877.0
2024-03-20T02:27:00.465Z,877.0
2024-03-20T02:28:00.482Z,877.0
2024-03-20T02:29:00.475Z,877.1
2024-03-20T02:30:00.466Z,877.1
2024-03-20T02:31:00.486Z,877.1
2024-03-20T02:32:00.524Z,877.2
2024-03-20T02:33:00.465Z,877.2
2024-03-20T02:34:00.573Z,877.2
2024-03-20T02:35:00.474Z,877.2
2024-03-20T02:36:00.505Z,877.2
2024-03-20T02:37:00.476Z,877.3
2024-03-20T02:38:00.588Z,877.3
2024-03-20T02:39:00.541Z,877.3
2024-03-20T02:40:00.542Z,877.3
2024-03-20T02:41:00.491Z,877.3
2024-03-20T02:42:00.508Z,877.3
2024-03-20T02:43:00.513Z,877.3
2024-03-20T02:44:00.650Z,877.3
2024-03-20T02:45:00.580Z,877.3
2024-03-20T02:46:00.508Z,877.3
2024-03-20T02:47:00.528Z,877.4
2024-03-20T02:48:00.516Z,877.4
2024-03-20T02:49:00.534Z,877.4
2024-03-20T02:50:00.571Z,877.4
2024-03-20T02:51:00.504Z,877.4
2024-03-20T02:52:00.494Z,877.4
2024-03-20T02:53:00.476Z,877.4
2024-03-20T02:54:00.467Z,877.4
2024-03-20T02:55:00.563Z,877.4
2024-03-20T02:56:00.491Z,877.5
2024-03-20T02:57:00.510Z,877.4
2024-03-20T02:58:00.471Z,877.5
2024-03-20T02:59:00.475Z,877.5
2024-03-20T03:00:00.485Z,877.5
2024-03-20T03:01:00.532Z,877.5
2024-03-20T03:02:00.480Z,877.5
2024-03-20T03:03:00.494Z,877.5
2024-03-20T03:04:00.551Z,877.6
2024-03-20T03:05:00.518Z,877.5
2024-03-20T03:06:00.532Z,877.5
2024-03-20T03:07:00.477Z,877.6
2024-03-20T03:08:00.551Z,877.6
2024-03-20T03:09:00.512Z,877.6
2024-03-20T03:10:00.471Z,877.6
2024-03-20T03:11:00.476Z,877.6
2024-03-20T03:12:00.563Z,877.7
2024-03-20T03:13:00.517Z,877.6
2024-03-20T03:14:00.495Z,877.6
2024-03-20T03:15:07.177Z,877.7
2024-03-20T03:16:00.540Z,877.7
2024-03-20T03:17:00.504Z,877.7
2024-03-20T03:18:00.561Z,877.7
2024-03-20T03:19:00.492Z,877.7
2024-03-20T03:20:00.551Z,877.7
2024-03-20T03:21:00.503Z,877.8
2024-03-20T03:22:00.485Z,877.8
2024-03-20T03:23:00.487Z,877.8
2024-03-20T03:24:00.529Z,877.8
2024-03-20T03:25:00.485Z,877.8
2024-03-20T03:26:00.492Z,877.8
2024-03-20T03:27:00.536Z,877.8
2024-03-20T03:28:00.728Z,877.8
2024-03-20T03:29:00.540Z,877.8
2024-03-20T03:30:00.535Z,877.9
2024-03-20T03:31:00.490Z,877.8
2024-03-20T03:32:00.564Z,877.9
2024-03-20T03:33:00.480Z,877.9
2024-03-20T03:34:00.560Z,877.9
2024-03-20T03:35:00.592Z,877.9
2024-03-20T03:36:00.487Z,877.9
2024-03-20T03:37:00.496Z,877.9
2024-03-20T03:38:00.464Z,878.0
2024-03-20T03:39:00.589Z,877.9
2024-03-20T03:40:00.518Z,878.0
2024-03-20T03:41:00.537Z,878.0
2024-03-20T03:42:00.481Z,878.0
2024-03-20T03:43:00.500Z,878.0
2024-03-20T03:44:00.499Z,878.0
2024-03-20T03:45:00.507Z,878.0
2024-03-20T03:46:00.496Z,878.0
2024-03-20T03:47:00.538Z,878.1
2024-03-20T03:48:00.500Z,878.1
2024-03-20T03:49:00.472Z,878.1
2024-03-20T03:50:00.549Z,878.1
2024-03-20T03:51:00.498Z,878.1
2024-03-20T03:52:00.608Z,878.1
2024-03-20T03:53:00.504Z,878.1
2024-03-20T03:54:00.474Z,878.1
2024-03-20T03:55:00.509Z,878.1
2024-03-20T03:56:00.491Z,878.1
2024-03-20T03:57:00.490Z,878.2
2024-03-20T03:58:00.568Z,878.2
2024-03-20T03:59:00.468Z,878.2
2024-03-20T04:00:00.578Z,878.2
2024-03-20T04:01:00.518Z,878.2
2024-03-20T04:02:00.578Z,878.2
2024-03-20T04:03:00.517Z,878.2
2024-03-20T04:04:00.477Z,878.2
2024-03-20T04:05:00.472Z,878.1
2024-03-20T04:06:00.500Z,878.2
2024-03-20T04:07:00.474Z,878.1
2024-03-20T04:08:00.536Z,878.1
2024-03-20T04:09:00.491Z,878.1
2024-03-20T04:10:00.503Z,878.2
2024-03-20T04:11:00.495Z,878.2
2024-03-20T04:12:00.567Z,878.2
2024-03-20T04:13:00.482Z,878.2
2024-03-20T04:14:00.551Z,878.2
2024-03-20T04:15:00.553Z,878.2
2024-03-20T04:16:00.479Z,878.2
2024-03-20T04:17:00.472Z,878.2
2024-03-20T04:18:00.524Z,878.2
2024-03-20T04:19:00.494Z,878.2
2024-03-20T04:20:00.573Z,878.3
2024-03-20T04:21:00.472Z,878.3
2024-03-20T04:22:00.526Z,878.3
2024-03-20T04:23:00.609Z,878.3
2024-03-20T04:24:00.572Z,878.3
2024-03-20T04:25:00.544Z,878.3
2024-03-20T04:26:00.511Z,878.4
2024-03-20T04:27:00.525Z,878.3
2024-03-20T04:28:00.543Z,878.4
2024-03-20T04:29:00.643Z,878.4
2024-03-20T04:30:00.581Z,878.4
2024-03-20T04:31:00.609Z,878.4
2024-03-20T04:32:00.481Z,878.4
2024-03-20T04:33:00.470Z,878.4
2024-03-20T04:34:00.484Z,878.4
2024-03-20T04:35:00.534Z,878.4
2024-03-20T04:36:00.506Z,878.5
2024-03-20T04:37:00.487Z,878.5
2024-03-20T04:38:00.473Z,878.5
2024-03-20T04:39:00.478Z,878.5
2024-03-20T04:40:00.509Z,878.5
2024-03-20T04:41:00.572Z,878.6
2024-03-20T04:42:00.514Z,878.6
2024-03-20T04:43:00.508Z,878.6
2024-03-20T04:44:00.503Z,878.6
2024-03-20T04:45:00.498Z,878.6
2024-03-20T04:46:00.571Z,878.6
2024-03-20T04:47:00.526Z,878.6
2024-03-20T04:48:00.496Z,878.6
2024-03-20T04:49:00.467Z,878.7
2024-03-20T04:50:00.488Z,878.7
2024-03-20T04:51:00.653Z,878.7
2024-03-20T04:52:00.493Z,878.7
2024-03-20T04:53:00.491Z,878.7
2024-03-20T04:54:00.488Z,878.8
2024-03-20T04:55:00.486Z,878.8
2024-03-20T04:56:00.494Z,878.8
2024-03-20T04:57:00.560Z,878.8
2024-03-20T04:58:00.512Z,878.8
2024-03-20T04:59:00.471Z,878.8
2024-03-20T05:00:00.486Z,878.9
2024-03-20T05:01:00.557Z,878.9
2024-03-20T05:02:00.472Z,878.9
2024-03-20T05:03:00.564Z,878.9
2024-03-20T05:04:00.497Z,878.9
2024-03-20T05:05:00.499Z,878.9
2024-03-20T05:06:00.486Z,878.9
2024-03-20T05:07:00.475Z,878.9
2024-03-20T05:08:00.488Z,878.9
2024-03-20T05:09:00.531Z,878.9
2024-03-20T05:10:00.495Z,878.9
2024-03-20T05:11:00.506Z,878.9
2024-03-20T05:12:00.496Z,878.9
2024-03-20T05:13:00.538Z,879.0
2024-03-20T05:14:00.534Z,879.0
2024-03-20T05:15:00.554Z,879.0
2024-03-20T05:16:00.588Z,879.0
2024-03-20T05:17:00.604Z,879.1
2024-03-20T05:18:00.481Z,879.1
2024-03-20T05:19:00.477Z,879.1
2024-03-20T05:20:00.488Z,879.1
2024-03-20T05:21:00.493Z,879.1
2024-03-20T05:22:00.560Z,879.1
2024-03-20T05:23:00.475Z,879.1
2024-03-20T05:24:00.518Z,879.1
2024-03-20T05:25:00.484Z,879.1
2024-03-20T05:26:00.467Z,879.2
2024-03-20T05:27:00.491Z,879.1
2024-03-20T05:28:00.531Z,879.2
2024-03-20T05:29:00.468Z,879.2
2024-03-20T05:30:00.719Z,879.3
2024-03-20T05:31:00.567Z,879.3
2024-03-20T05:32:00.493Z,879.3
2024-03-20T05:33:00.478Z,879.3
2024-03-20T05:34:00.550Z,879.3
2024-03-20T05:35:00.593Z,879.3
2024-03-20T05:36:00.502Z,879.3
2024-03-20T05:37:00.566Z,879.3
2024-03-20T05:38:00.483Z,879.3
2024-03-20T05:39:00.494Z,879.3
2024-03-20T05:40:00.498Z,879.3
2024-03-20T05:41:00.537Z,879.3
2024-03-20T05:42:00.473Z,879.3
2024-03-20T05:43:00.492Z,879.3
2024-03-20T05:44:00.487Z,879.3
2024-03-20T05:45:00.471Z,879.3
2024-03-20T05:46:00.554Z,879.3
2024-03-20T05:47:00.513Z,879.3
2024-03-20T05:48:01.129Z,879.4
2024-03-20T05:49:00.471Z,879.4
2024-03-20T05:50:00.490Z,879.4
2024-03-20T05:51:00.480Z,879.4
2024-03-20T05:52:00.486Z,879.4
2024-03-20T05:53:00.467Z,879.4
2024-03-20T05:54:00.524Z,879.4
2024-03-20T05:55:00.579Z,879.4
2024-03-20T05:56:00.480Z,879.4
2024-03-20T05:57:00.475Z,879.4
2024-03-20T05:58:00.529Z,879.4
2024-03-20T05:59:00.477Z,879.4
2024-03-20T06:00:00.537Z,879.4
2024-03-20T06:01:00.536Z,879.5
2024-03-20T06:02:00.469Z,879.5
2024-03-20T06:03:00.483Z,879.5
2024-03-20T06:04:00.544Z,879.4
2024-03-20T06:05:00.469Z,879.4
2024-03-20T06:06:00.525Z,879.5
2024-03-20T06:07:00.537Z,879.5
2024-03-20T06:08:00.597Z,879.5
2024-03-20T06:10:00.579Z,879.5
2024-03-20T06:11:00.530Z,879.4
2024-03-20T06:12:00.541Z,879.4
2024-03-20T06:13:00.477Z,879.5
2024-03-20T06:14:00.547Z,879.4
2024-03-20T06:15:00.611Z,879.5
2024-03-20T06:16:00.565Z,879.5
2024-03-20T06:17:00.558Z,879.5
2024-03-20T06:18:00.483Z,879.5
2024-03-20T06:19:00.482Z,879.6
2024-03-20T06:20:00.535Z,879.6
2024-03-20T06:21:00.477Z,879.6
2024-03-20T06:22:00.475Z,879.6
2024-03-20T06:23:00.467Z,879.6
2024-03-20T06:24:00.492Z,879.7
2024-03-20T06:25:00.541Z,879.6
2024-03-20T06:26:00.547Z,879.6
2024-03-20T06:27:00.471Z,879.6
2024-03-20T06:28:00.489Z,879.6
2024-03-20T06:29:00.468Z,879.7
2024-03-20T06:30:00.750Z,879.7
2024-03-20T06:31:00.478Z,879.7
2024-03-20T06:32:00.465Z,879.7
2024-03-20T06:33:00.468Z,879.7
2024-03-20T06:34:00.472Z,879.7
2024-03-20T06:35:00.480Z,879.7
2024-03-20T06:36:00.559Z,879.7
2024-03-20T06:37:00.478Z,879.7
2024-03-20T06:38:00.469Z,879.7
2024-03-20T06:39:00.471Z,879.7
2024-03-20T06:40:00.539Z,879.7
2024-03-20T06:41:00.533Z,879.7
2024-03-20T06:42:00.467Z,879.7
2024-03-20T06:43:00.497Z,879.7
2024-03-20T06:44:00.506Z,879.7
2024-03-20T06:45:00.474Z,879.7
2024-03-20T06:46:00.487Z,879.7
2024-03-20T06:47:00.535Z,879.7
2024-03-20T06:48:00.474Z,879.7
2024-03-20T06:49:00.565Z,879.8
2024-03-20T06:50:00.476Z,879.8
2024-03-20T06:51:00.467Z,879.8
2024-03-20T06:52:00.467Z,879.8
2024-03-20T06:53:00.548Z,879.8
2024-03-20T06:54:00.472Z,879.8
2024-03-20T06:55:00.540Z,879.8
2024-03-20T06:56:00.470Z,879.8
2024-03-20T06:57:00.465Z,879.8
2024-03-20T06:58:00.478Z,879.8
2024-03-20T06:59:00.566Z,879.9
2024-03-20T07:00:00.543Z,879.9
2024-03-20T07:01:00.480Z,879.9
2024-03-20T07:02:00.502Z,879.9
2024-03-20T07:03:00.493Z,879.9
2024-03-20T07:04:00.539Z,879.9
2024-03-20T07:05:00.560Z,879.9
2024-03-20T07:06:00.560Z,879.9
2024-03-20T07:07:00.504Z,879.9
2024-03-20T07:08:00.552Z,880.0
2024-03-20T07:09:00.509Z,879.9
2024-03-20T07:10:00.716Z,879.9
2024-03-20T07:11:00.557Z,879.9
2024-03-20T07:12:00.604Z,879.9
2024-03-20T07:13:00.467Z,879.9
2024-03-20T07:14:00.580Z,880.0
2024-03-20T07:15:00.482Z,880.0
2024-03-20T07:16:00.481Z,880.0
2024-03-20T07:17:03.044Z,880.0
2024-03-20T07:18:00.567Z,880.0
2024-03-20T07:19:00.485Z,880.0
2024-03-20T07:20:00.481Z,880.0
2024-03-20T07:21:00.475Z,880.0
2024-03-20T07:22:00.484Z,880.0
2024-03-20T07:23:00.475Z,880.0
2024-03-20T07:24:00.702Z,880.0
2024-03-20T07:25:00.622Z,879.9
2024-03-20T07:26:00.500Z,880.0
2024-03-20T07:27:00.468Z,880.0
2024-03-20T07:28:00.478Z,880.0
2024-03-20T07:29:00.484Z,880.0
2024-03-20T07:30:00.612Z,880.0
2024-03-20T07:31:00.484Z,880.0
2024-03-20T07:32:00.468Z,879.9
2024-03-20T07:33:00.484Z,880.0
2024-03-20T07:34:00.552Z,880.0
2024-03-20T07:35:00.496Z,880.0
2024-03-20T07:36:00.547Z,880.0
2024-03-20T07:37:00.482Z,880.0
2024-03-20T07:38:00.477Z,880.0
2024-03-20T07:39:00.490Z,880.1
2024-03-20T07:40:00.564Z,880.1
2024-03-20T07:41:00.478Z,880.1
2024-03-20T07:42:00.541Z,880.0
2024-03-20T07:43:00.486Z,880.1
2024-03-20T07:44:00.502Z,880.1
2024-03-20T07:45:00.485Z,880.1
2024-03-20T07:46:00.478Z,880.1
2024-03-20T07:47:00.529Z,880.1
2024-03-20T07:48:00.527Z,880.1
2024-03-20T07:49:00.486Z,880.1
2024-03-20T07:50:00.498Z,880.1
2024-03-20T07:51:00.632Z,880.1
2024-03-20T07:52:00.482Z,880.1
2024-03-20T07:53:00.476Z,880.0
2024-03-20T07:54:00.583Z,880.1
2024-03-20T07:55:00.552Z,880.0
2024-03-20T07:56:00.537Z,880.1
2024-03-20T07:57:00.486Z,880.1
2024-03-20T07:58:00.641Z,880.1
2024-03-20T07:59:00.542Z,880.1
2024-03-20T08:00:00.561Z,880.1
2024-03-20T08:01:00.512Z,880.0
2024-03-20T08:02:00.627Z,880.1
2024-03-20T08:03:00.478Z,880.1
2024-03-20T08:04:00.526Z,880.1
2024-03-20T08:05:00.499Z,880.1
2024-03-20T08:07:00.486Z,880.1
2024-03-20T08:08:00.482Z,880.1
2024-03-20T08:09:00.472Z,880.0
2024-03-20T08:10:00.605Z,880.0
2024-03-20T08:11:00.492Z,880.0
2024-03-20T08:12:00.536Z,880.0
2024-03-20T08:13:00.513Z,880.0
2024-03-20T08:14:00.500Z,880.0
2024-03-20T08:15:00.516Z,880.0
2024-03-20T08:16:00.487Z,880.0
2024-03-20T08:17:00.547Z,880.0
2024-03-20T08:18:00.481Z,880.0
2024-03-20T08:19:00.484Z,880.0
2024-03-20T08:20:00.511Z,880.0
2024-03-20T08:21:00.486Z,880.0
2024-03-20T08:22:00.481Z,880.0
2024-03-20T08:23:00.541Z,880.0
2024-03-20T08:24:00.564Z,880.0
2024-03-20T08:25:00.650Z,880.0
2024-03-20T08:26:00.471Z,880.0
2024-03-20T08:27:00.500Z,880.0
2024-03-20T08:28:00.503Z,880.0
2024-03-20T08:29:00.551Z,880.0
2024-03-20T08:30:00.639Z,880.0
2024-03-20T08:31:00.502Z,880.0
2024-03-20T08:32:00.527Z,880.0
2024-03-20T08:33:00.483Z,880.0
2024-03-20T08:34:00.474Z,880.0
2024-03-20T08:35:00.600Z,880.0
2024-03-20T08:36:00.492Z,880.0
2024-03-20T08:37:00.486Z,880.1
2024-03-20T08:38:00.500Z,880.1
2024-03-20T08:39:00.473Z,880.1
2024-03-20T08:40:00.609Z,880.1
2024-03-20T08:41:00.538Z,880.0
2024-03-20T08:42:02.855Z,880.1
2024-03-20T08:43:05.667Z,880.1
2024-03-20T08:44:00.496Z,880.1
2024-03-20T08:45:00.576Z,880.1
2024-03-20T08:46:00.545Z,880.1
2024-03-20T08:47:00.537Z,880.0
2024-03-20T08:48:00.484Z,880.1
2024-03-20T08:49:00.480Z,880.0
2024-03-20T08:50:00.468Z,880.0
2024-03-20T08:51:00.520Z,880.0
2024-03-20T08:52:00.473Z,880.1
2024-03-20T08:53:00.564Z,880.1
2024-03-20T08:54:00.525Z,880.1
2024-03-20T08:55:00.541Z,880.1
2024-03-20T08:56:00.536Z,880.1
2024-03-20T08:57:00.509Z,880.1
2024-03-20T08:58:00.535Z,880.0
2024-03-20T08:59:00.545Z,880.1
2024-03-20T09:00:00.675Z,880.0
2024-03-20T09:01:00.558Z,880.1
2024-03-20T09:02:00.563Z,880.1
2024-03-20T09:03:00.522Z,880.1
2024-03-20T09:04:00.476Z,880.1
2024-03-20T09:05:00.514Z,880.1
2024-03-20T09:06:00.490Z,880.1
2024-03-20T09:07:00.585Z,880.1
2024-03-20T09:08:00.556Z,880.1
2024-03-20T09:09:00.465Z,880.1
2024-03-20T09:10:00.513Z,880.0
2024-03-20T09:11:00.481Z,880.1
2024-03-20T09:12:00.491Z,880.1
2024-03-20T09:13:00.597Z,880.1
2024-03-20T09:14:00.495Z,880.1
2024-03-20T09:15:00.816Z,880.1
2024-03-20T09:16:00.482Z,880.1
2024-03-20T09:17:00.481Z,880.1
2024-03-20T09:18:00.495Z,880.2
2024-03-20T09:19:00.563Z,880.2
2024-03-20T09:20:00.502Z,880.2
2024-03-20T09:21:00.484Z,880.2
2024-03-20T09:22:01.965Z,880.2
2024-03-20T09:23:00.464Z,880.2
2024-03-20T09:24:00.472Z,880.2
2024-03-20T09:25:00.543Z,880.2
2024-03-20T09:26:00.470Z,880.2
2024-03-20T09:27:02.119Z,880.2
2024-03-20T09:28:00.493Z,880.2
2024-03-20T09:29:00.472Z,880.1
2024-03-20T09:30:00.676Z,880.2
2024-03-20T09:31:00.581Z,880.2
2024-03-20T09:32:00.497Z,880.1
2024-03-20T09:33:00.480Z,880.1
2024-03-20T09:34:00.472Z,880.2
2024-03-20T09:35:00.508Z,880.1
2024-03-20T09:36:00.491Z,880.2
2024-03-20T09:37:00.630Z,880.1
2024-03-20T09:38:00.555Z,880.2
2024-03-20T09:39:00.480Z,880.2
2024-03-20T09:40:00.497Z,880.2
2024-03-20T09:41:00.502Z,880.2
2024-03-20T09:42:00.615Z,880.2
2024-03-20T09:43:00.505Z,880.2
2024-03-20T09:44:00.539Z,880.1
2024-03-20T09:45:00.566Z,880.1
2024-03-20T09:46:00.499Z,880.1
2024-03-20T09:47:00.554Z,880.1
2024-03-20T09:48:00.541Z,880.1
2024-03-20T09:49:00.500Z,880.1
2024-03-20T09:50:00.594Z,880.0
2024-03-20T09:51:00.531Z,880.0
2024-03-20T09:52:00.547Z,880.1
2024-03-20T09:53:00.479Z,880.1
2024-03-20T09:54:00.507Z,880.1
2024-03-20T09:55:00.496Z,880.1
2024-03-20T09:56:00.547Z,880.0
2024-03-20T09:57:00.582Z,880.0
2024-03-20T09:58:01.793Z,880.0
2024-03-20T09:59:00.470Z,880.0
2024-03-20T10:00:00.543Z,880.0
2024-03-20T10:01:00.519Z,880.0
2024-03-20T10:02:00.485Z,880.0
2024-03-20T10:03:00.478Z,880.1
2024-03-20T10:04:00.496Z,880.0
2024-03-20T10:05:00.562Z,880.0
2024-03-20T10:06:00.482Z,880.0
2024-03-20T10:07:00.477Z,880.0
2024-03-20T10:08:00.552Z,880.0
2024-03-20T10:09:00.482Z,879.9
2024-03-20T10:10:00.485Z,880.0
2024-03-20T10:11:00.554Z,880.0
2024-03-20T10:12:00.481Z,880.0
2024-03-20T10:13:00.493Z,880.0
2024-03-20T10:14:00.478Z,880.0
2024-03-20T10:15:00.499Z,880.0
2024-03-20T10:16:04.421Z,880.0
2024-03-20T10:17:09.525Z,880.0
2024-03-20T10:18:00.469Z,880.0
2024-03-20T10:19:00.486Z,880.0
2024-03-20T10:20:00.484Z,880.0
2024-03-20T10:21:00.474Z,880.0
2024-03-20T10:22:00.481Z,880.0
2024-03-20T10:23:00.571Z,880.1
2024-03-20T10:24:00.484Z,880.0
2024-03-20T10:25:00.486Z,880.0
2024-03-20T10:26:00.495Z,880.0
2024-03-20T10:27:00.471Z,880.0
2024-03-20T10:28:00.472Z,880.0
2024-03-20T10:29:00.525Z,880.0
2024-03-20T10:31:00.397Z,880.0
2024-03-20T10:32:00.409Z,880.0
2024-03-20T10:33:00.402Z,880.0
2024-03-20T10:34:00.418Z,880.0
2024-03-20T10:35:00.460Z,880.1
2024-03-20T10:36:00.410Z,880.1
2024-03-20T10:37:00.437Z,880.1
2024-03-20T10:38:00.483Z,880.1
2024-03-20T10:39:04.453Z,880.1
2024-03-20T10:40:00.390Z,880.1
2024-03-20T10:41:00.525Z,880.1
2024-03-20T10:42:01.713Z,880.1
2024-03-20T10:43:00.476Z,880.0
2024-03-20T10:44:00.491Z,880.0
2024-03-20T10:45:00.452Z,880.1
2024-03-20T10:46:00.467Z,880.0
2024-03-20T10:47:00.451Z,880.1
2024-03-20T10:48:00.407Z,880.1
2024-03-20T10:49:00.412Z,880.1
2024-03-20T10:50:00.662Z,880.0
2024-03-20T10:51:00.393Z,880.1
2024-03-20T10:52:00.405Z,880.1
2024-03-20T10:53:00.481Z,880.1
2024-03-20T10:54:00.405Z,880.1
2024-03-20T10:55:00.442Z,880.1
2024-03-20T10:56:00.403Z,880.1
2024-03-20T10:57:00.401Z,880.1
2024-03-20T10:58:00.402Z,880.1
2024-03-20T10:59:00.491Z,880.2
2024-03-20T11:00:00.384Z,880.1
2024-03-20T11:01:00.412Z,880.1
2024-03-20T11:02:00.408Z,880.1
2024-03-20T11:03:00.414Z,880.1
2024-03-20T11:04:00.393Z,880.2
2024-03-20T11:05:00.485Z,880.2
2024-03-20T11:06:00.393Z,880.2
2024-03-20T11:07:00.397Z,880.1
2024-03-20T11:08:00.394Z,880.1
2024-03-20T11:09:00.396Z,880.2
2024-03-20T11:10:00.400Z,880.2
2024-03-20T11:11:00.436Z,880.1
2024-03-20T11:12:00.392Z,880.1
2024-03-20T11:13:00.404Z,880.1
2024-03-20T11:14:00.459Z,880.1
2024-03-20T11:15:00.403Z,880.2
2024-03-20T11:16:00.397Z,880.1
2024-03-20T11:17:00.408Z,880.1
2024-03-20T11:18:00.397Z,880.1
2024-03-20T11:19:00.400Z,880.1
2024-03-20T11:20:00.501Z,880.2
2024-03-20T11:21:00.408Z,880.2
2024-03-20T11:22:00.409Z,880.2
2024-03-20T11:23:00.394Z,880.2
2024-03-20T11:24:00.429Z,880.2
2024-03-20T11:25:00.394Z,880.2
2024-03-20T11:26:00.455Z,880.2
2024-03-20T11:27:00.450Z,880.2
2024-03-20T11:28:00.408Z,880.2
2024-03-20T11:29:00.403Z,880.2
2024-03-20T11:30:00.416Z,880.2
2024-03-20T11:31:00.394Z,880.2
2024-03-20T11:32:00.472Z,880.2
2024-03-20T11:33:00.393Z,880.2
2024-03-20T11:34:00.414Z,880.2
2024-03-20T11:35:00.593Z,880.2
2024-03-20T11:36:00.469Z,880.2
2024-03-20T11:37:00.469Z,880.2
2024-03-20T11:38:00.534Z,880.2
2024-03-20T11:39:00.441Z,880.2
2024-03-20T11:40:00.498Z,880.2
2024-03-20T11:41:00.424Z,880.2
2024-03-20T11:42:00.402Z,880.2
2024-03-20T11:43:00.441Z,880.3
2024-03-20T11:44:00.450Z,880.3
2024-03-20T11:45:00.476Z,880.3
2024-03-20T11:46:00.650Z,880.3
2024-03-20T11:47:00.497Z,880.3
2024-03-20T11:48:00.403Z,880.3
2024-03-20T11:49:00.402Z,880.2
2024-03-20T11:50:00.650Z,880.3
2024-03-20T11:51:00.401Z,880.3
2024-03-20T11:52:00.407Z,880.2
2024-03-20T11:53:00.412Z,880.2
2024-03-20T11:54:00.397Z,880.2
2024-03-20T11:55:00.395Z,880.1
2024-03-20T11:56:00.676Z,880.2
2024-03-20T11:57:00.413Z,880.2
2024-03-20T11:58:00.407Z,880.1
2024-03-20T11:59:00.430Z,880.2
2024-03-20T12:00:00.429Z,880.2
2024-03-20T12:01:00.418Z,880.2
2024-03-20T12:02:00.468Z,880.2
2024-03-20T12:03:00.470Z,880.2
2024-03-20T12:04:00.418Z,880.2
2024-03-20T12:05:00.389Z,880.2
2024-03-20T12:06:00.406Z,880.2
2024-03-20T12:07:00.393Z,880.2
2024-03-20T12:08:00.479Z,880.2
2024-03-20T12:09:00.394Z,880.1
2024-03-20T12:10:00.399Z,880.1
2024-03-20T12:11:00.406Z,880.1
2024-03-20T12:12:00.407Z,880.1
2024-03-20T12:13:00.428Z,880.1
2024-03-20T12:14:00.462Z,880.1
2024-03-20T12:15:00.412Z,880.1
2024-03-20T12:16:00.393Z,880.1
2024-03-20T12:17:00.402Z,880.1
2024-03-20T12:18:00.470Z,880.1
2024-03-20T12:19:00.409Z,880.1
2024-03-20T12:20:00.480Z,880.1
2024-03-20T12:21:00.398Z,880.1
2024-03-20T12:22:00.408Z,880.1
2024-03-20T12:23:00.406Z,880.1
2024-03-20T12:24:00.405Z,880.1
2024-03-20T12:25:05.799Z,880.2
2024-03-20T12:26:00.465Z,880.2
2024-03-20T12:27:00.393Z,880.2
2024-03-20T12:28:00.406Z,880.2
2024-03-20T12:29:00.397Z,880.2
2024-03-20T12:30:00.415Z,880.2
2024-03-20T12:31:00.449Z,880.3
2024-03-20T12:32:00.533Z,880.3
2024-03-20T12:33:00.549Z,880.2
2024-03-20T12:34:00.440Z,880.2
2024-03-20T12:35:00.435Z,880.3
2024-03-20T12:36:00.417Z,880.3
2024-03-20T12:37:03.326Z,880.3
2024-03-20T12:38:00.465Z,880.2
2024-03-20T12:39:00.393Z,880.3
2024-03-20T12:40:00.397Z,880.3
2024-03-20T12:41:00.426Z,880.3
2024-03-20T12:42:00.457Z,880.3
2024-03-20T12:43:00.407Z,880.3
2024-03-20T12:44:00.459Z,880.3
2024-03-20T12:45:00.400Z,880.3
2024-03-20T12:46:00.541Z,880.3
2024-03-20T12:47:00.407Z,880.3
2024-03-20T12:48:01.057Z,880.4
2024-03-20T12:49:00.427Z,880.3
2024-03-20T12:50:00.509Z,880.3
2024-03-20T12:51:00.407Z,880.3
2024-03-20T12:52:00.415Z,880.3
2024-03-20T12:53:00.429Z,880.3
2024-03-20T12:54:00.401Z,880.3
2024-03-20T12:55:00.392Z,880.3